Terminal Aerodrome Forecast
Issued by NWS

Home | Current Version | Previous Version | Text Only | Print | Product List | Glossary On
Versions: 1 2 3 4 5 6 7 8 9 10 11 12 13 14 15 16 17
577
FTUS46 KMTR 261722
TAFSTS
TAF
KSTS 261722Z 2618/2718 VRB03KT P6SM FEW010
     FM262100 17008KT P6SM FEW010
     FM270500 VRB03KT P6SM FEW010
     FM270800 00000KT 6SM BR SCT005
     FM271000 00000KT 5SM BR BKN004
     FM271200 00000KT 1/2SM FG OVC002
     FM271600 VRB02KT P6SM FEW004=

USA.gov is the U.S. government's official web portal to all federal, state and local government web resources and services.